Latest Weather Observations for Newcastle Nobbys

IDN60901

Issued at 11:21 pm EDT Saturday 26 November 2022 (issued every 10 minutes, with the page automatically refreshed every 10 minutes)

About weather observations | Map of Sydney area stations | Latest observations for Sydney area | Other Formats
Station Details ID: 061055 Name: NEWCASTLE NOBBYS SIGNAL STATION AWS Lat: -32.92 Lon: 151.80 Height: 33.0 m
Data from the previous 72 hours. | See also: Recent months at Newcastle Nobbys
Date/Time
EDT
Temp
°C
App
Temp
°C
Dew
Point
°C
Rel
Hum
%
Delta-T
°C
Wind Press
QNH
hPa
Press
MSL
hPa
Rain since
9am
mm
Dir  Spd
km/h
Gust
km/h
Spd
kts
Gust
kts
26/11:00pm 18.5 15.8 13.6 73 2.8 NE 20 30 11 16 - - 0.0
26/10:30pm 18.4 14.9 13.5 73 2.8 NE 24 32 13 17 - - 0.0
26/10:00pm 18.8 15.5 13.9 73 2.8 NE 24 35 13 19 - - 0.0
26/09:30pm 18.6 14.8 13.7 73 2.8 NE 26 32 14 17 - - 0.0
26/09:00pm 18.4 15.6 13.3 72 2.9 NE 20 26 11 14 - - 0.0
26/08:30pm 18.4 15.2 13.1 71 3.0 NE 22 28 12 15 - - 0.0
26/08:00pm 18.4 15.1 12.8 70 3.1 NE 22 28 12 15 - - 0.0
26/07:30pm 18.4 15.0 12.6 69 3.2 ENE 22 28 12 15 - - 0.0
26/07:00pm 18.5 15.4 12.3 67 3.4 ENE 20 26 11 14 - - 0.0
26/06:30pm 18.6 15.5 12.1 66 3.6 ENE 20 22 11 12 - - 0.0
26/06:00pm 19.2 16.1 12.2 64 3.9 E 20 24 11 13 - - 0.0
26/05:30pm 18.9 16.0 12.2 65 3.7 E 19 22 10 12 - - 0.0
26/05:00pm 19.1 15.7 11.4 61 4.2 E 20 24 11 13 - - 0.0
26/04:30pm 19.6 16.5 11.6 60 4.4 ESE 19 20 10 11 - - 0.0
26/04:00pm 19.8 16.8 11.8 60 4.4 ESE 19 20 10 11 - - 0.0
26/03:30pm 19.9 17.3 11.9 60 4.4 ESE 17 19 9 10 - - 0.0
26/03:00pm 20.1 17.1 11.8 59 4.6 SE 19 22 10 12 - - 0.0
26/02:30pm 19.9 17.1 11.4 58 4.7 SE 17 20 9 11 - - 0.0
26/02:00pm 20.2 17.3 12.4 61 4.4 SE 19 22 10 12 - - 0.0
26/01:30pm 19.9 16.2 12.7 63 4.1 SE 24 28 13 15 - - 0.0
26/01:00pm 19.9 16.0 12.2 61 4.3 SE 24 28 13 15 - - 0.0
26/12:30pm 20.0 16.4 13.0 64 4.0 SSE 24 30 13 16 - - 0.0
26/12:00pm 19.5 15.3 12.3 63 4.0 SSE 26 32 14 17 - - 0.0
26/11:30am 19.5 15.3 12.3 63 4.0 SSE 26 32 14 17 - - 0.0
26/11:00am 19.5 15.6 13.2 67 3.6 SSE 26 30 14 16 - - 0.0
26/10:30am 19.2 15.5 14.0 72 3.0 SSE 26 33 14 18 - - 0.0
26/10:00am 19.1 15.8 14.1 73 2.9 SSE 24 28 13 15 - - 0.0
26/09:30am 18.7 14.8 14.4 76 2.5 SSE 28 32 15 17 - - 0.0
26/09:00am 18.8 14.9 14.3 75 2.6 SSE 28 35 15 19 - - 1.2
26/08:30am 18.7 14.9 14.6 77 2.4 SSE 28 35 15 19 - - 1.2
26/08:00am 18.5 14.2 15.4 82 1.8 SSE 32 39 17 21 - - 1.2
26/07:30am 18.5 14.3 16.1 86 1.4 SSE 33 39 18 21 - - 1.2
26/07:00am 18.5 17.4 16.3 87 1.3 SSW 17 35 9 19 - - 0.4
26/06:30am 18.4 18.3 16.0 86 1.4 SW 11 15 6 8 - - 0.0
26/06:00am 18.6 17.5 16.4 87 1.3 SSW 17 28 9 15 - - 0.0
26/05:30am 18.3 17.6 16.3 88 1.2 SSW 15 26 8 14 - - 0.0
26/05:00am 18.4 17.3 16.4 88 1.2 SSW 17 24 9 13 - - 0.0
26/04:30am 18.5 17.8 16.5 88 1.2 SW 15 20 8 11 - - 0.0
26/04:00am 19.0 18.4 17.5 91 0.9 SSW 17 22 9 12 - - 0.0
26/03:30am 18.9 18.6 17.4 91 0.9 SSW 15 20 8 11 - - 0.0
26/03:00am 19.1 17.6 17.6 91 0.9 S 22 30 12 16 - - 0.0
26/02:30am 19.2 16.6 17.9 92 0.8 S 28 33 15 18 - - 0.0
26/02:00am 19.3 16.4 18.0 92 0.8 S 30 35 16 19 - - 0.0
26/01:30am 19.2 18.6 17.5 90 1.0 S 17 22 9 12 - - 0.0
26/01:00am 19.3 19.3 17.3 88 1.2 SSW 13 17 7 9 - - 0.0
26/12:30am 19.1 19.5 16.3 84 1.7 SSW 9 13 5 7 - - 0.0
26/12:00am 19.2 20.9 16.1 82 1.9 SSW 2 4 1 2 - - 0.0
 
Date/Time
EDT
Temp
°C
App
Temp
°C
Dew
Point
°C
Rel
Hum
%
Delta-T
°C
Wind Press
QNH
hPa
Press
MSL
hPa
Rain since
9am
mm
Dir  Spd
km/h
Gust
km/h
Spd
kts
Gust
kts
25/11:30pm 19.5 20.9 16.5 83 1.8 NNE 4 6 2 3 - - 0.0
25/11:00pm 19.7 20.8 16.5 82 1.9 NE 6 9 3 5 - - 0.0
25/10:30pm 19.9 20.0 16.5 81 2.0 NE 11 15 6 8 - - 0.0
25/10:00pm 20.1 20.4 16.9 82 1.9 NE 11 17 6 9 - - 0.0
25/09:30pm 20.2 21.0 17.4 84 1.7 NNE 9 13 5 7 - - 0.0
25/09:00pm 20.4 19.9 17.0 81 2.1 NE 15 20 8 11 - - 0.0
25/08:30pm 20.1 19.4 17.3 84 1.7 NE 17 24 9 13 - - 0.0
25/08:00pm 20.2 18.6 17.4 84 1.7 ENE 22 28 12 15 - - 0.0
25/07:30pm 20.4 18.8 17.4 83 1.8 ENE 22 26 12 14 - - 0.0
25/07:00pm 20.4 18.2 17.0 81 2.1 ENE 24 32 13 17 - - 0.0
25/06:30pm 20.7 18.2 17.1 80 2.2 ENE 26 32 14 17 - - 0.0
25/06:00pm 20.6 17.4 17.2 81 2.1 ENE 30 35 16 19 - - 0.0
25/05:30pm 20.8 18.0 17.4 81 2.1 ENE 28 33 15 18 - - 0.0
25/05:00pm 20.9 17.6 17.1 79 2.3 ENE 30 35 16 19 - - 0.0
25/04:30pm 21.0 17.6 16.8 77 2.6 ENE 30 35 16 19 - - 0.0
25/04:00pm 21.3 18.1 17.3 78 2.5 ENE 30 35 16 19 - - 0.0
25/03:30pm 21.3 18.0 17.1 77 2.6 ENE 30 35 16 19 - - 0.0
25/03:00pm 21.4 18.4 16.8 75 2.8 E 28 32 15 17 - - 0.0
25/02:30pm 21.6 19.0 16.8 74 2.9 E 26 30 14 16 - - 0.0
25/02:00pm 21.6 19.7 16.6 73 3.0 ENE 22 28 12 15 - - 0.0
25/01:30pm 21.8 20.2 16.5 72 3.2 E 20 26 11 14 - - 0.0
25/01:00pm 21.9 20.2 16.2 70 3.4 E 20 22 11 12 - - 0.0
25/12:30pm 22.0 20.3 16.3 70 3.5 E 20 22 11 12 - - 0.0
25/12:00pm 22.1 20.7 16.6 71 3.4 E 19 20 10 11 - - 0.0
25/11:30am 22.1 21.0 16.4 70 3.5 E 17 19 9 10 - - 0.0
25/11:00am 21.6 20.7 16.8 74 2.9 E 17 20 9 11 - - 0.0
25/10:30am 21.6 20.6 16.6 73 3.0 E 17 19 9 10 - - 0.0
25/10:00am 21.5 21.2 16.5 73 3.0 E 13 17 7 9 - - 0.0
25/09:30am 22.0 22.6 16.9 73 3.1 E 9 13 5 7 - - 0.0
25/09:00am 21.1 21.4 16.9 77 2.6 E 11 11 6 6 - - 0.0
25/08:30am 19.3 19.7 16.3 83 1.8 ESE 9 11 5 6 - - 0.0
25/08:00am 19.2 19.6 16.2 83 1.8 ESE 9 11 5 6 - - 0.0
25/07:30am 19.0 19.3 16.0 83 1.8 E 9 11 5 6 - - 0.0
25/07:00am 18.8 18.3 16.0 84 1.7 E 13 15 7 8 - - 0.0
25/06:30am 18.5 18.0 15.9 85 1.5 ESE 13 17 7 9 - - 0.0
25/06:00am 18.4 17.2 16.0 86 1.4 SE 17 17 9 9 - - 0.0
25/05:30am 18.3 17.0 15.9 86 1.4 SE 17 20 9 11 - - 0.0
25/05:00am 18.4 16.6 16.0 86 1.4 SE 20 24 11 13 - - 0.0
25/04:30am 18.4 16.1 15.8 85 1.5 SE 22 24 12 13 - - 0.0
25/04:00am 18.5 16.0 16.1 86 1.4 SE 24 28 13 15 - - 0.0
25/03:30am 18.6 16.1 16.2 86 1.4 SE 24 28 13 15 - - 0.0
25/03:00am 18.6 15.7 16.2 86 1.4 SE 26 30 14 16 - - 0.0
25/02:30am 18.7 16.0 16.7 88 1.2 SE 26 30 14 16 - - 0.0
25/02:00am 18.9 17.5 17.0 89 1.2 SSE 20 26 11 14 - - 0.0
25/01:30am 19.1 18.4 17.4 90 1.0 SSE 17 19 9 10 - - 0.0
25/01:00am 19.3 19.4 17.4 89 1.2 SSE 13 15 7 8 - - 0.0
25/12:30am 19.2 19.2 17.3 89 1.2 ESE 13 15 7 8 - - 0.0
25/12:00am 19.3 19.3 17.3 88 1.2 E 13 15 7 8 - - 0.0
 
Date/Time
EDT
Temp
°C
App
Temp
°C
Dew
Point
°C
Rel
Hum
%
Delta-T
°C
Wind Press
QNH
hPa
Press
MSL
hPa
Rain since
9am
mm
Dir  Spd
km/h
Gust
km/h
Spd
kts
Gust
kts
24/11:30pm 19.3 18.8 16.9 86 1.5 E 15 17 8 9 - - 0.0
24/11:00pm 19.3 18.7 16.7 85 1.6 ENE 15 20 8 11 - - 0.0
24/10:30pm 19.3 18.3 16.5 84 1.7 E 17 20 9 11 - - 0.0
24/10:00pm 19.3 17.8 16.2 82 1.9 ENE 19 22 10 12 - - 0.0
24/09:30pm 19.2 17.7 16.4 84 1.7 ENE 19 20 10 11 - - 0.0
24/09:00pm 19.4 18.0 16.6 84 1.7 ENE 19 24 10 13 - - 0.0
24/08:30pm 19.2 17.5 16.2 83 1.8 ENE 20 26 11 14 - - 0.0
24/08:00pm 19.1 16.5 15.8 81 2.0 ENE 24 30 13 16 - - 0.0
24/07:30pm 19.2 16.6 15.9 81 2.0 E 24 30 13 16 - - 0.0
24/07:00pm 19.3 16.4 16.0 81 2.0 E 26 30 14 16 - - 0.0
24/06:30pm 19.6 16.5 15.5 77 2.4 E 26 30 14 16 - - 0.0
24/06:00pm 19.9 16.8 15.7 77 2.5 E 26 30 14 16 - - 0.0
24/05:30pm 20.0 17.2 15.4 75 2.7 E 24 30 13 16 - - 0.0
24/05:00pm 20.2 17.5 15.6 75 2.7 E 24 28 13 15 - - 0.0
24/04:30pm 20.1 16.9 15.3 74 2.8 ESE 26 30 14 16 - - 0.0
24/04:00pm 20.5 17.7 15.3 72 3.1 ESE 24 28 13 15 - - 0.0
24/03:30pm 20.6 18.3 15.6 73 3.0 E 22 26 12 14 - - 0.0
24/03:00pm 20.7 18.5 15.9 74 2.9 ESE 22 26 12 14 - - 0.0
24/02:30pm 21.2 18.8 15.5 70 3.4 ESE 22 24 12 13 - - 0.0
24/02:00pm 21.1 18.7 15.4 70 3.4 ESE 22 24 12 13 - - 0.0
24/01:30pm 20.7 18.3 15.3 71 3.2 SE 22 26 12 14 - - 0.0
24/01:00pm 20.8 18.2 15.8 73 3.0 SE 24 28 13 15 - - 0.0
24/12:30pm 20.8 18.2 15.8 73 3.0 SE 24 28 13 15 - - 0.0
24/12:00pm 20.9 18.0 15.2 70 3.4 SE 24 28 13 15 - - 0.0
24/11:30am 21.1 17.4 14.0 64 4.1 SSE 26 30 14 16 - - 0.0
24/11:00am 21.3 18.6 13.5 61 4.5 SSE 20 24 11 13 - - 0.0
24/10:30am 20.9 18.1 13.1 61 4.5 SSE 20 22 11 12 - - 0.0
24/10:00am 20.8 17.5 11.7 56 5.1 S 20 22 11 12 - - 0.0
24/09:30am 20.8 17.8 12.5 59 4.7 S 20 22 11 12 - - 0.0
24/09:00am 21.0 18.6 12.7 59 4.7 S 17 22 9 12 - - 0.0
24/08:30am 20.7 19.9 14.1 66 3.8 SSW 11 17 6 9 - - 0.0
24/08:00am 19.7 19.6 14.9 74 2.8 WSW 9 17 5 9 - - 0.0
24/07:30am 19.3 19.7 15.2 77 2.4 SW 7 13 4 7 - - 0.0
24/07:00am 18.0 17.4 14.7 81 1.9 WSW 11 15 6 8 - - 0.0
24/06:30am 17.3 16.9 14.0 81 1.9 WSW 9 13 5 7 - - 0.0
24/06:00am 16.9 15.8 13.2 79 2.1 WSW 11 15 6 8 - - 0.0
24/05:30am 16.8 15.7 13.1 79 2.1 WSW 11 13 6 7 - - 0.0
24/05:00am 16.4 15.6 12.8 79 2.0 W 9 11 5 6 - - 0.0
24/04:30am 16.6 15.8 12.8 78 2.1 SW 9 15 5 8 - - 0.0
24/04:00am 16.2 15.7 12.7 80 1.9 WNW 7 11 4 6 - - 0.0
24/03:30am 16.5 15.4 13.0 80 2.0 WNW 11 13 6 7 - - 0.0
24/03:00am 17.1 16.9 13.6 80 2.0 WNW 7 7 4 4 - - 0.0
24/02:30am 17.8 18.2 13.7 77 2.3 WNW 4 4 2 2 - - 0.0
24/02:00am 17.7 18.2 12.8 73 2.7 N 2 6 1 3 - - 0.0
24/01:30am 18.3 18.5 13.0 71 3.0 NW 4 6 2 3 - - 0.0
24/01:00am 18.4 18.7 13.5 73 2.8 WNW 4 6 2 3 - - 0.0
24/12:30am 18.9 19.3 13.7 72 3.0 N 4 7 2 4 - - 0.0
24/12:00am 19.1 19.0 13.9 72 3.0 NE 7 9 4 5 - - 0.0
 
Date/Time
EDT
Temp
°C
App
Temp
°C
Dew
Point
°C
Rel
Hum
%
Delta-T
°C
Wind Press
QNH
hPa
Press
MSL
hPa
Rain since
9am
mm
Dir  Spd
km/h
Gust
km/h
Spd
kts
Gust
kts
23/11:30pm 19.4 18.3 13.1 67 3.6 NE 11 15 6 8 - - 0.0

Latest Capital City Observations: Canberra | Sydney | Melbourne | Brisbane | Adelaide | Perth | Hobart | Darwin

Other formats

Comma delimited format used in spreadsheet applications
http://www.bom.gov.au/fwo/IDN60901/IDN60901.94774.axf

JavaScript Object Notation format (JSON) in row-major order
http://www.bom.gov.au/fwo/IDN60901/IDN60901.94774.json

Data quality

Most of these data are generated automatically and are frequently updated. Quality checks on data are not normally performed. It is possible for incorrect values to appear. Refer to information at About Latest Weather Observations and please check the disclaimer before using these data.